Terminal Aerodrome Forecast
Issued by NWS Amarillo, TX

Home | Current Version | Previous Version | Text Only | Print | Product List | Glossary On
Versions: 1 2 3 4 5 6 7 8 9 10 11 12 13 14 15 16 17 18 19 20 21 22 23 24 25 26 27 28 29 30 31 32 33 34
000
FTUS44 KAMA 201400 AAA
TAFDHT
TAF AMD
KDHT 201455Z 2015/2112 22006KT 1/4SM FZFG OVC002
     FM201600 23006KT P6SM SCT015 SCT200
     FM210000 VRB05KT P6SM BKN200=

USA.gov is the U.S. government's official web portal to all federal, state and local government web resources and services.